createdAt,value
2018-08-24T04:05:08.630Z,27.10
2018-08-24T04:07:49.317Z,25.83
2018-08-24T04:10:22.633Z,26.20
2018-08-24T04:25:05.611Z,29.67
2018-08-24T04:28:05.021Z,26.97
2018-08-24T04:36:50.670Z,29.53
2018-08-24T04:39:24.160Z,29.00
2018-08-24T04:42:25.363Z,28.40
2018-08-24T04:44:59.221Z,31.77
2018-08-24T04:47:31.480Z,30.23
2018-08-24T04:50:09.181Z,37.77
2018-08-24T04:59:15.649Z,26.30
2018-08-24T05:11:12.873Z,26.50
2018-08-24T05:20:44.825Z,25.53
2018-08-24T05:23:25.749Z,25.37
2018-08-24T05:29:17.345Z,22.67
2018-08-24T05:44:46.668Z,23.20
2018-08-24T05:50:54.125Z,18.53
2018-08-24T06:47:12.152Z,19.80
2018-08-24T06:57:18.653Z,25.80
2018-08-24T07:00:01.638Z,20.83
2018-08-24T07:04:33.949Z,21.17
2018-08-24T07:18:16.658Z,19.37
2018-08-24T07:43:07.717Z,14.50
2018-08-24T07:45:38.753Z,16.40
2018-08-24T07:48:15.266Z,15.77
2018-08-24T07:50:49.178Z,14.83
2018-08-24T07:57:16.496Z,12.73
2018-08-24T07:59:50.393Z,13.13
2018-08-24T08:02:27.192Z,12.40
2018-08-24T08:04:59.535Z,13.13
2018-08-24T08:07:31.528Z,12.13
2018-08-24T08:10:02.500Z,13.00
2018-08-24T08:12:33.383Z,11.20
2018-08-24T08:18:08.847Z,11.30
2018-08-24T08:21:02.531Z,12.10
2018-08-24T08:30:26.728Z,12.57
2018-08-24T08:33:02.980Z,12.47
2018-08-24T08:35:33.966Z,10.97
2018-08-24T08:38:04.947Z,11.50
2018-08-24T08:40:38.776Z,11.93
2018-08-24T08:46:37.026Z,12.47
2018-08-24T08:59:01.609Z,10.87
2018-08-24T11:23:34.008Z,13.80
2018-08-24T11:26:05.164Z,14.30
2018-08-24T11:28:35.801Z,20.50
2018-08-24T11:31:07.964Z,14.30
2018-08-24T11:33:41.552Z,14.80
2018-08-24T11:39:52.639Z,14.03
2018-08-24T11:54:42.244Z,15.57
2018-08-24T12:12:17.181Z,21.30
2018-08-24T12:15:16.919Z,16.60
2018-08-24T12:21:19.778Z,17.30
2018-08-24T12:23:50.292Z,18.43
2018-08-24T12:26:41.520Z,19.50
2018-08-24T12:29:17.173Z,16.80
2018-08-24T12:31:54.215Z,18.27
2018-08-24T12:34:25.063Z,19.70
2018-08-24T12:37:03.301Z,17.17
2018-08-24T12:39:35.825Z,17.57
2018-08-24T12:42:06.730Z,17.30
2018-08-24T12:44:41.625Z,19.33
2018-08-24T12:47:13.863Z,15.17
2018-08-24T12:52:47.459Z,13.80
2018-08-24T12:58:51.276Z,15.57
2018-08-24T13:06:12.736Z,13.93
2018-08-24T13:09:29.206Z,13.83
2018-08-24T13:12:12.113Z,12.50
2018-08-24T13:18:40.666Z,13.57
2018-08-24T13:21:42.144Z,13.73
2018-08-24T13:25:17.743Z,14.93
2018-08-24T14:24:28.067Z,22.53
2018-08-24T14:34:10.959Z,20.10
2018-08-24T14:36:50.136Z,20.03
2018-08-24T14:39:35.040Z,22.17
2018-08-24T14:42:13.276Z,21.40
2018-08-24T14:51:42.895Z,23.77
2018-08-24T14:54:19.592Z,20.23
2018-08-24T15:05:52.849Z,24.47
2018-08-24T15:08:29.976Z,25.47
2018-08-24T15:12:18.437Z,30.60
2018-08-24T15:14:58.795Z,28.83
2018-08-24T15:21:32.782Z,26.37
2018-08-24T15:27:07.744Z,27.03
2018-08-24T15:29:38.661Z,27.53
2018-08-24T15:32:12.534Z,24.30
2018-08-24T15:35:34.789Z,27.40
2018-08-24T15:44:13.294Z,26.07
2018-08-24T15:46:45.424Z,25.30
2018-08-24T15:49:24.449Z,26.70
2018-08-24T15:51:57.504Z,27.83
2018-08-24T15:54:38.239Z,23.83
2018-08-24T15:57:08.732Z,21.67
2018-08-24T15:59:39.760Z,21.43
2018-08-24T16:02:10.543Z,21.80
2018-08-24T16:04:43.253Z,20.67
2018-08-24T16:07:14.172Z,23.80
2018-08-24T16:09:45.014Z,20.33
2018-08-24T16:12:18.340Z,20.77
2018-08-24T16:14:49.487Z,18.13
2018-08-24T16:17:20.709Z,20.70
2018-08-24T16:23:20.459Z,24.10
2018-08-24T16:26:02.903Z,19.73
2018-08-24T16:31:48.189Z,19.57
2018-08-24T16:34:19.039Z,22.73
2018-08-24T16:36:49.941Z,22.97
2018-08-24T16:39:19.972Z,23.80
2018-08-24T16:41:50.863Z,22.97
2018-08-24T16:44:20.707Z,22.13
2018-08-24T16:46:50.536Z,26.90
2018-08-24T16:49:20.641Z,21.33
2018-08-24T16:52:15.215Z,20.40
2018-08-24T16:54:45.936Z,23.10
2018-08-24T17:07:43.595Z,20.07
2018-08-24T17:13:50.176Z,20.43
2018-08-24T17:16:19.900Z,28.73
2018-08-24T17:18:50.008Z,21.83
2018-08-24T17:21:19.226Z,20.77
2018-08-24T17:23:48.774Z,18.30
2018-08-24T17:26:17.928Z,18.27
2018-08-24T17:28:47.382Z,23.43
2018-08-24T17:31:17.254Z,21.77
2018-08-24T17:33:46.700Z,19.87
2018-08-24T17:36:16.555Z,22.73
2018-08-24T17:38:46.371Z,20.27
2018-08-24T17:41:15.440Z,20.13
2018-08-24T17:43:44.436Z,20.67
2018-08-24T17:46:14.187Z,19.17
2018-08-24T17:48:44.583Z,20.63
2018-08-24T17:51:14.045Z,18.97
2018-08-24T17:53:43.644Z,18.77
2018-08-24T17:56:13.985Z,24.40
2018-08-24T17:58:45.249Z,22.67
2018-08-24T18:01:15.013Z,20.60
2018-08-24T18:03:43.715Z,25.53
2018-08-24T18:06:13.480Z,20.97
2018-08-24T18:08:43.319Z,21.40
2018-08-24T18:11:13.419Z,18.07
2018-08-24T18:13:42.984Z,16.33
2018-08-24T18:16:13.108Z,18.90
2018-08-24T18:18:42.780Z,14.83
2018-08-24T18:21:12.748Z,18.97
2018-08-24T18:23:43.146Z,17.93
2018-08-24T18:26:13.484Z,17.47
2018-08-24T18:28:42.553Z,17.80
2018-08-24T18:31:12.799Z,18.67
2018-08-24T18:33:42.935Z,19.27
2018-08-24T18:36:13.519Z,17.20
2018-08-24T18:38:44.385Z,18.73
2018-08-24T18:41:14.352Z,19.27
2018-08-24T18:43:45.236Z,19.93
2018-08-24T18:46:14.991Z,19.37
2018-08-24T18:48:44.995Z,18.60
2018-08-24T18:51:14.796Z,20.83
2018-08-24T18:53:44.628Z,23.70
2018-08-24T18:56:15.079Z,20.87
2018-08-24T18:58:45.343Z,20.13
2018-08-24T19:01:15.946Z,21.50
2018-08-24T19:03:45.975Z,19.30
2018-08-24T19:06:16.587Z,19.30
2018-08-24T19:08:47.793Z,17.47
2018-08-24T19:11:22.386Z,17.63
2018-08-24T19:13:52.536Z,17.03
2018-08-24T19:16:23.369Z,15.43
2018-08-24T19:18:58.285Z,16.33
2018-08-24T19:21:32.888Z,15.93
2018-08-24T19:24:03.864Z,17.50
2018-08-24T19:26:34.524Z,19.73
2018-08-24T19:29:09.600Z,20.17
2018-08-24T19:31:39.457Z,19.97
2018-08-24T19:34:10.391Z,17.13
2018-08-24T19:36:41.130Z,16.97
2018-08-24T19:39:14.289Z,17.80
2018-08-24T19:41:49.735Z,17.57
2018-08-24T19:44:18.831Z,18.90
2018-08-24T19:46:48.690Z,17.63
2018-08-24T19:49:20.624Z,18.43
2018-08-24T19:51:50.377Z,22.03
2018-08-24T19:54:20.021Z,17.07
2018-08-24T19:56:49.959Z,19.57
2018-08-24T19:59:19.836Z,19.97
2018-08-24T20:01:49.649Z,20.30
2018-08-24T20:04:19.460Z,21.57
2018-08-24T20:06:53.976Z,23.20
2018-08-24T20:09:29.212Z,17.57
2018-08-24T20:11:59.025Z,18.90
2018-08-24T20:14:33.624Z,21.20
2018-08-24T20:17:08.712Z,19.40
2018-08-24T20:19:39.512Z,19.77
2018-08-24T20:22:10.543Z,20.97
2018-08-24T20:24:40.399Z,24.83
2018-08-24T20:27:10.236Z,23.10
2018-08-24T20:29:40.134Z,27.37
2018-08-24T20:32:09.952Z,21.50
2018-08-24T20:34:39.767Z,21.97
2018-08-24T20:37:09.611Z,21.67
2018-08-24T20:39:39.421Z,22.90
2018-08-24T20:42:09.250Z,25.83
2018-08-24T20:44:39.076Z,23.03
2018-08-24T20:47:08.958Z,25.10
2018-08-24T20:49:38.724Z,20.47
2018-08-24T20:52:08.576Z,22.63
2018-08-24T20:54:38.336Z,20.83
2018-08-24T20:57:08.227Z,20.77
2018-08-24T20:59:38.105Z,17.50
2018-08-24T21:02:08.919Z,20.07
2018-08-24T21:04:38.734Z,20.23
2018-08-24T21:07:08.579Z,19.10
2018-08-24T21:09:39.160Z,18.90
2018-08-24T21:12:09.787Z,19.37
2018-08-24T21:14:40.793Z,20.23
2018-08-24T21:17:10.940Z,23.40
2018-08-24T21:19:40.762Z,22.77
2018-08-24T21:22:11.416Z,22.77
2018-08-24T21:24:42.456Z,22.90
2018-08-24T21:27:12.223Z,24.80
2018-08-24T21:29:43.235Z,21.63
2018-08-24T21:32:12.947Z,21.40
2018-08-24T21:34:43.520Z,23.20
2018-08-24T21:37:14.407Z,22.80
2018-08-24T21:39:45.372Z,25.20
2018-08-24T21:42:16.273Z,19.97
2018-08-24T21:44:46.184Z,22.20
2018-08-24T21:47:15.991Z,24.40
2018-08-24T21:49:45.859Z,22.70
2018-08-24T21:52:15.652Z,20.47
2018-08-24T21:54:45.468Z,21.77
2018-08-24T21:57:15.305Z,22.03
2018-08-24T21:59:45.871Z,23.10
